createdAt,value
2023-02-22T00:00:19.597Z,167.57
2023-02-22T00:02:29.135Z,200.57
2023-02-22T00:04:35.630Z,206.02
2023-02-22T00:06:40.527Z,80.40
2023-02-22T00:08:43.985Z,92.78
2023-02-22T00:10:47.390Z,81.80
2023-02-22T00:12:51.190Z,98.75
2023-02-22T00:14:54.864Z,83.38
2023-02-22T00:16:59.911Z,95.32
2023-02-22T00:19:03.522Z,109.40
2023-02-22T00:21:10.696Z,86.88
2023-02-22T00:23:19.057Z,129.63
2023-02-22T00:25:24.869Z,82.88
2023-02-22T00:27:28.299Z,84.90
2023-02-22T00:29:34.400Z,92.15
2023-02-22T00:31:39.343Z,78.97
2023-02-22T00:33:43.383Z,84.22
2023-02-22T00:35:47.351Z,87.05
2023-02-22T00:37:51.331Z,102.82
2023-02-22T00:39:56.009Z,127.80
2023-02-22T00:41:59.215Z,104.88
2023-02-22T00:44:02.666Z,169.50
2023-02-22T00:46:06.261Z,127.30
2023-02-22T00:48:10.386Z,103.80
2023-02-22T00:50:13.858Z,95.88
2023-02-22T00:52:17.335Z,105.93
2023-02-22T00:54:20.776Z,81.10
2023-02-22T00:56:25.376Z,76.70
2023-02-22T00:58:28.912Z,77.95
2023-02-22T01:00:37.230Z,98.53
2023-02-22T01:02:40.638Z,76.50
2023-02-22T01:04:44.161Z,85.57
2023-02-22T01:06:48.295Z,80.88
2023-02-22T01:08:51.513Z,82.45
2023-02-22T01:10:54.750Z,88.97
2023-02-22T01:13:01.041Z,85.38
2023-02-22T01:15:10.374Z,85.55
2023-02-22T01:17:13.550Z,68.60
2023-02-22T01:19:16.705Z,75.78
2023-02-22T01:21:20.182Z,67.47
2023-02-22T01:23:23.437Z,78.25
2023-02-22T01:25:28.928Z,78.60
2023-02-22T01:27:32.313Z,79.43
2023-02-22T01:29:36.880Z,86.05
2023-02-22T01:31:44.121Z,97.63
2023-02-22T01:33:48.289Z,93.15
2023-02-22T01:35:52.238Z,103.70
2023-02-22T01:37:55.588Z,106.32
2023-02-22T01:39:58.863Z,110.30
2023-02-22T01:42:02.118Z,127.50
2023-02-22T01:44:20.486Z,174.98
2023-02-22T01:46:27.268Z,109.63
2023-02-22T01:48:39.521Z,107.80
2023-02-22T01:50:46.354Z,117.20
2023-02-22T01:52:50.194Z,112.38
2023-02-22T01:54:58.056Z,110.50
2023-02-22T01:57:07.662Z,133.18
2023-02-22T01:59:13.296Z,132.95
2023-02-22T02:01:17.920Z,105.05
2023-02-22T02:03:27.559Z,252.75
2023-02-22T02:05:34.346Z,120.07
2023-02-22T02:07:39.350Z,132.15
2023-02-22T02:09:49.134Z,108.50
2023-02-22T02:11:52.536Z,118.90
2023-02-22T02:13:59.132Z,110.50
2023-02-22T02:16:04.260Z,106.47
2023-02-22T02:18:12.017Z,89.90
2023-02-22T02:20:23.574Z,118.47
2023-02-22T02:22:47.692Z,122.68
2023-02-22T02:25:26.658Z,123.50
2023-02-22T02:27:40.099Z,97.88
2023-02-22T02:30:25.946Z,99.07
2023-02-22T02:32:53.375Z,186.07
2023-02-22T02:35:02.116Z,116.75
2023-02-22T02:37:13.604Z,109.47
2023-02-22T02:41:29.282Z,98.93
2023-02-22T02:43:38.224Z,96.50
2023-02-22T02:45:48.517Z,96.15
2023-02-22T02:47:58.698Z,97.80
2023-02-22T02:50:09.932Z,106.28
2023-02-22T02:52:14.529Z,112.65
2023-02-22T02:54:19.032Z,106.65
2023-02-22T02:56:23.461Z,103.47
2023-02-22T02:58:26.891Z,126.93
2023-02-22T03:00:39.331Z,103.38
2023-02-22T03:02:50.625Z,103.85
2023-02-22T03:05:12.911Z,226.77
2023-02-22T03:07:34.571Z,164.98
2023-02-22T03:09:48.034Z,139.85
2023-02-22T03:12:03.382Z,153.25
2023-02-22T03:14:17.825Z,142.05
2023-02-22T03:16:30.259Z,126.10
2023-02-22T03:18:44.279Z,126.95
2023-02-22T03:20:54.545Z,142.80
2023-02-22T03:23:04.914Z,236.73
2023-02-22T03:25:11.501Z,301.08
2023-02-22T03:27:21.827Z,233.32
2023-02-22T03:29:35.569Z,287.15
2023-02-22T03:31:45.159Z,205.65
2023-02-22T03:33:54.432Z,120.00
2023-02-22T03:36:03.527Z,126.60
2023-02-22T03:38:16.069Z,114.00
2023-02-22T03:40:26.552Z,126.47
2023-02-22T03:44:42.521Z,153.57
2023-02-22T03:46:47.484Z,143.80
2023-02-22T03:48:55.296Z,136.23
2023-02-22T03:51:04.485Z,122.38
2023-02-22T03:53:08.749Z,108.22
2023-02-22T03:55:17.797Z,91.85
2023-02-22T03:57:26.887Z,118.00
2023-02-22T03:59:39.140Z,119.18
2023-02-22T04:01:43.105Z,120.45
2023-02-22T04:03:46.450Z,86.35
2023-02-22T04:05:50.580Z,110.18
2023-02-22T04:07:56.544Z,113.97
2023-02-22T04:09:59.842Z,111.97
2023-02-22T04:12:04.192Z,106.60
2023-02-22T04:14:13.114Z,107.75
2023-02-22T04:16:16.633Z,113.13
2023-02-22T04:18:20.594Z,96.43
2023-02-22T04:20:26.298Z,85.78
2023-02-22T04:22:49.758Z,89.53
2023-02-22T04:24:54.594Z,124.78
2023-02-22T04:26:58.544Z,116.53
2023-02-22T04:29:02.338Z,100.03
2023-02-22T04:31:12.309Z,92.03
2023-02-22T04:33:17.119Z,96.45
2023-02-22T04:35:20.409Z,96.05
2023-02-22T04:37:23.682Z,102.07
2023-02-22T04:39:27.369Z,108.30
2023-02-22T04:41:32.339Z,99.47
2023-02-22T04:43:35.572Z,98.88
2023-02-22T04:45:53.284Z,93.97
2023-02-22T04:47:56.532Z,81.95
2023-02-22T04:50:00.437Z,91.85
2023-02-22T04:52:03.993Z,96.03
2023-02-22T04:54:11.435Z,98.50
2023-02-22T04:56:18.906Z,88.05
2023-02-22T04:58:24.493Z,85.80
2023-02-22T05:00:27.852Z,95.10
2023-02-22T05:02:35.929Z,100.88
2023-02-22T05:04:40.108Z,84.22
2023-02-22T05:06:43.283Z,76.15
2023-02-22T05:08:46.438Z,78.53
2023-02-22T05:10:49.593Z,77.90
2023-02-22T05:12:52.857Z,79.72
2023-02-22T05:14:57.463Z,74.75
2023-02-22T05:17:01.299Z,88.75
2023-02-22T05:19:04.614Z,70.25
2023-02-22T05:21:08.009Z,84.80
2023-02-22T05:23:11.245Z,92.45
2023-02-22T05:25:14.469Z,107.03
2023-02-22T05:27:17.655Z,89.78
2023-02-22T05:29:21.431Z,90.30
2023-02-22T05:31:26.098Z,87.80
2023-02-22T05:33:29.851Z,99.38
2023-02-22T05:35:33.675Z,98.25
2023-02-22T05:37:37.262Z,100.20
2023-02-22T05:39:40.452Z,106.25
2023-02-22T05:41:43.698Z,121.15
2023-02-22T05:43:46.934Z,108.90
2023-02-22T05:45:50.269Z,148.38
2023-02-22T05:47:55.940Z,109.95
2023-02-22T05:49:59.313Z,122.30
2023-02-22T05:52:02.578Z,112.70
2023-02-22T05:54:06.006Z,111.40
2023-02-22T05:56:09.498Z,115.82
2023-02-22T05:58:12.722Z,107.78
2023-02-22T06:00:19.137Z,167.65
2023-02-22T06:02:22.464Z,157.50
2023-02-22T06:04:27.907Z,124.95
2023-02-22T06:06:31.189Z,122.70
2023-02-22T06:08:34.540Z,187.23
2023-02-22T06:10:37.822Z,143.55
2023-02-22T06:12:41.700Z,126.68
2023-02-22T06:14:46.040Z,129.30
2023-02-22T06:16:53.894Z,148.02
2023-02-22T06:18:57.119Z,118.63
2023-02-22T06:21:02.126Z,166.55
2023-02-22T06:23:05.383Z,180.15
2023-02-22T06:25:10.538Z,161.88
2023-02-22T06:27:13.990Z,150.90
2023-02-22T06:29:17.275Z,196.40
2023-02-22T06:31:20.751Z,163.75
2023-02-22T06:33:24.117Z,173.13
2023-02-22T06:35:27.551Z,201.90
2023-02-22T06:37:32.174Z,153.07
2023-02-22T06:39:35.408Z,181.63
2023-02-22T06:41:38.666Z,164.00
2023-02-22T06:43:41.877Z,129.23
2023-02-22T06:45:45.295Z,143.20
2023-02-22T06:47:50.165Z,148.80
2023-02-22T06:49:57.221Z,169.38
2023-02-22T06:52:00.458Z,139.43
2023-02-22T06:54:06.166Z,165.73
2023-02-22T06:56:09.436Z,171.10
2023-02-22T06:58:12.631Z,172.52
2023-02-22T07:00:18.792Z,173.35
2023-02-22T07:02:22.120Z,155.75
2023-02-22T07:04:25.338Z,148.98
2023-02-22T07:06:28.684Z,129.30
2023-02-22T07:08:32.103Z,125.47
2023-02-22T07:10:38.385Z,177.10
2023-02-22T07:12:41.621Z,145.82
2023-02-22T07:14:44.849Z,135.90
2023-02-22T07:16:48.092Z,132.18
2023-02-22T07:18:51.293Z,148.57
2023-02-22T07:20:54.735Z,134.25
2023-02-22T07:22:57.905Z,112.05
2023-02-22T07:25:01.377Z,156.05
2023-02-22T07:27:06.250Z,139.90
2023-02-22T07:29:11.355Z,125.25
2023-02-22T07:31:15.221Z,133.60
2023-02-22T07:33:18.602Z,128.68
2023-02-22T07:35:24.145Z,110.03
2023-02-22T07:37:27.516Z,119.78
2023-02-22T07:39:31.332Z,120.25
2023-02-22T07:41:34.507Z,102.10
2023-02-22T07:43:39.093Z,113.85
2023-02-22T07:45:42.717Z,106.95
2023-02-22T07:47:47.583Z,119.07
2023-02-22T07:49:50.801Z,118.40
2023-02-22T07:51:54.153Z,105.75
2023-02-22T07:53:57.390Z,95.30
2023-02-22T07:56:02.829Z,94.78
2023-02-22T07:58:08.369Z,96.78
2023-02-22T08:00:16.602Z,81.57
2023-02-22T08:02:27.752Z,87.93
2023-02-22T08:04:30.926Z,82.78
2023-02-22T08:06:34.150Z,74.32
2023-02-22T08:08:37.319Z,80.80
2023-02-22T08:10:40.508Z,75.95
2023-02-22T08:12:43.864Z,74.70
2023-02-22T08:14:47.103Z,78.10
2023-02-22T08:16:51.678Z,76.93
2023-02-22T08:18:54.930Z,77.70
2023-02-22T08:20:58.251Z,72.43
2023-02-22T08:23:01.501Z,66.93
2023-02-22T08:25:04.786Z,68.47
2023-02-22T08:27:08.692Z,66.60
2023-02-22T08:29:11.983Z,69.30
2023-02-22T08:31:15.459Z,62.72
2023-02-22T08:33:20.532Z,64.05
2023-02-22T08:35:24.260Z,62.05
2023-02-22T08:37:27.656Z,59.40
2023-02-22T08:39:30.852Z,56.60
2023-02-22T08:41:34.083Z,59.58
2023-02-22T08:43:37.353Z,54.45
2023-02-22T08:45:40.733Z,55.35
2023-02-22T08:47:44.692Z,55.08
2023-02-22T08:49:49.386Z,56.30
2023-02-22T08:51:52.564Z,55.08
2023-02-22T08:53:56.134Z,54.75
2023-02-22T08:55:59.338Z,45.70
2023-02-22T08:58:03.929Z,48.70
2023-02-22T09:00:08.696Z,45.72
2023-02-22T09:02:16.942Z,46.20
2023-02-22T09:04:20.163Z,43.35
2023-02-22T09:06:25.219Z,46.10
2023-02-22T09:08:28.953Z,40.45
2023-02-22T09:10:34.520Z,44.28
2023-02-22T09:12:37.826Z,44.03
2023-02-22T09:14:42.972Z,45.20
2023-02-22T09:16:46.438Z,44.58
2023-02-22T09:18:49.732Z,41.90
2023-02-22T09:20:53.467Z,41.67
2023-02-22T09:22:58.521Z,41.47
2023-02-22T09:25:11.249Z,36.95
2023-02-22T09:27:21.889Z,38.97
2023-02-22T09:29:27.334Z,45.00
2023-02-22T09:31:30.609Z,49.08
2023-02-22T09:33:33.859Z,56.58
2023-02-22T09:35:38.014Z,53.67
2023-02-22T09:37:44.619Z,45.72
2023-02-22T09:39:49.471Z,44.85
2023-02-22T09:41:59.328Z,51.20
2023-02-22T09:44:15.483Z,50.85
2023-02-22T09:46:24.421Z,48.90
2023-02-22T09:48:27.950Z,44.13
2023-02-22T09:50:35.714Z,46.25
2023-02-22T09:52:55.521Z,47.88
2023-02-22T09:55:10.362Z,46.85
2023-02-22T09:57:20.162Z,42.80
2023-02-22T09:59:27.039Z,42.55
2023-02-22T10:01:34.993Z,44.67
2023-02-22T10:03:48.822Z,44.40
2023-02-22T10:06:00.517Z,40.90
2023-02-22T10:08:06.184Z,45.75
2023-02-22T10:10:18.170Z,44.08
2023-02-22T10:12:30.751Z,41.78
2023-02-22T10:14:50.012Z,39.40
2023-02-22T10:16:59.482Z,35.22
2023-02-22T10:19:18.462Z,36.28
2023-02-22T10:21:42.822Z,37.47
2023-02-22T10:23:55.743Z,36.00
2023-02-22T10:26:13.539Z,37.10
2023-02-22T10:28:22.746Z,34.53
2023-02-22T10:30:31.476Z,36.97
2023-02-22T10:32:45.451Z,35.03
2023-02-22T10:34:51.543Z,38.30
2023-02-22T10:36:58.957Z,37.03
2023-02-22T10:39:13.363Z,34.78
2023-02-22T10:41:25.006Z,32.22
2023-02-22T10:43:28.580Z,35.05
2023-02-22T10:45:33.791Z,33.42
2023-02-22T10:47:37.757Z,33.63
2023-02-22T10:49:44.444Z,35.75
2023-02-22T10:51:49.472Z,38.15
2023-02-22T10:54:00.791Z,43.40
2023-02-22T10:56:14.242Z,40.78
2023-02-22T10:58:19.394Z,35.97
2023-02-22T11:00:37.310Z,35.88
2023-02-22T11:02:40.650Z,34.92
2023-02-22T11:04:49.605Z,37.20
2023-02-22T11:07:09.024Z,36.45
2023-02-22T11:09:15.405Z,35.75
2023-02-22T11:11:28.893Z,32.65
2023-02-22T11:13:35.149Z,33.42
2023-02-22T11:15:38.417Z,33.20
2023-02-22T11:17:42.179Z,33.40
2023-02-22T11:19:48.572Z,34.50
2023-02-22T11:21:54.283Z,32.90
2023-02-22T11:24:05.107Z,31.00
2023-02-22T11:26:11.335Z,35.38
2023-02-22T11:28:20.775Z,31.20
2023-02-22T11:30:31.741Z,29.80
2023-02-22T11:32:36.549Z,32.55
2023-02-22T11:34:42.719Z,32.25
2023-02-22T11:36:46.800Z,30.77
2023-02-22T11:38:58.527Z,31.85
2023-02-22T11:41:17.360Z,28.40
2023-02-22T11:43:21.860Z,26.83
2023-02-22T11:45:25.809Z,28.23
2023-02-22T11:47:30.565Z,25.00
2023-02-22T11:49:35.783Z,25.70
2023-02-22T11:52:06.716Z,28.25
2023-02-22T11:54:31.287Z,25.13
2023-02-22T11:56:40.555Z,25.73
2023-02-22T11:58:49.425Z,26.02
2023-02-22T12:00:59.837Z,28.17
2023-02-22T12:03:29.372Z,26.75
2023-02-22T12:05:45.776Z,31.55
2023-02-22T12:08:13.779Z,29.40
2023-02-22T12:10:33.016Z,27.52
2023-02-22T12:12:49.279Z,29.13
2023-02-22T12:15:00.350Z,27.65
2023-02-22T12:17:19.609Z,29.08
2023-02-22T12:19:31.330Z,29.02
2023-02-22T12:21:37.477Z,29.08
2023-02-22T12:23:46.161Z,31.88
2023-02-22T12:25:58.886Z,30.42
2023-02-22T12:28:23.684Z,31.85
2023-02-22T12:30:31.384Z,31.33
2023-02-22T12:32:41.777Z,27.70
2023-02-22T12:34:50.010Z,25.27
2023-02-22T12:36:57.967Z,31.10
2023-02-22T12:39:07.397Z,27.33
2023-02-22T12:41:18.451Z,24.20
2023-02-22T12:43:28.709Z,26.55
2023-02-22T12:45:38.134Z,25.48
2023-02-22T12:47:56.689Z,25.08
2023-02-22T12:50:06.768Z,24.95
2023-02-22T12:52:21.843Z,25.48
2023-02-22T12:54:43.217Z,24.77
2023-02-22T12:56:51.932Z,25.25
2023-02-22T12:59:02.921Z,28.50
2023-02-22T13:01:13.599Z,25.70
2023-02-22T13:03:31.807Z,25.67
2023-02-22T13:05:40.767Z,23.42
2023-02-22T13:07:53.594Z,21.38
2023-02-22T13:10:15.473Z,23.50
2023-02-22T13:12:22.906Z,24.10
2023-02-22T13:14:39.869Z,23.42
2023-02-22T13:16:52.610Z,22.42
2023-02-22T13:19:04.548Z,21.90
2023-02-22T13:21:17.890Z,21.45
2023-02-22T13:23:37.315Z,26.05
2023-02-22T13:25:46.756Z,20.17
2023-02-22T13:27:54.536Z,21.52
2023-02-22T13:30:00.155Z,20.17
2023-02-22T13:32:19.543Z,21.08
2023-02-22T13:34:51.563Z,21.02
2023-02-22T13:37:13.617Z,20.27
2023-02-22T13:39:44.142Z,22.10
2023-02-22T13:41:56.256Z,21.65
2023-02-22T13:44:24.280Z,18.85
2023-02-22T13:47:02.961Z,21.25
2023-02-22T13:49:19.980Z,19.33
2023-02-22T13:51:51.679Z,21.17
2023-02-22T13:53:59.936Z,20.15
2023-02-22T13:56:03.427Z,22.00
2023-02-22T13:58:08.777Z,22.67
2023-02-22T14:00:24.436Z,23.15
2023-02-22T14:02:36.784Z,22.15
2023-02-22T14:04:41.725Z,20.33
2023-02-22T14:06:45.857Z,26.83
2023-02-22T14:08:49.191Z,21.33
2023-02-22T14:10:56.283Z,21.83
2023-02-22T14:13:05.944Z,21.45
2023-02-22T14:15:32.694Z,22.70
2023-02-22T14:17:36.062Z,20.73
2023-02-22T14:19:39.577Z,20.55
2023-02-22T14:22:02.105Z,21.08
2023-02-22T14:24:10.993Z,21.55
2023-02-22T14:26:19.506Z,21.20
2023-02-22T14:28:40.653Z,23.40
2023-02-22T14:30:44.042Z,21.80
2023-02-22T14:32:49.215Z,21.65
2023-02-22T14:34:58.088Z,24.88
2023-02-22T14:37:05.878Z,25.13
2023-02-22T14:39:20.080Z,21.35
2023-02-22T14:41:28.795Z,24.88
2023-02-22T14:43:36.873Z,21.45
2023-02-22T14:45:47.272Z,26.27
2023-02-22T14:48:01.232Z,19.67
2023-02-22T14:50:07.945Z,19.00
2023-02-22T14:52:22.605Z,21.65
2023-02-22T14:54:31.656Z,20.35
2023-02-22T14:56:44.197Z,19.27
2023-02-22T14:58:50.774Z,20.27
2023-02-22T15:00:56.949Z,18.63
2023-02-22T15:03:01.609Z,21.83
2023-02-22T15:05:05.274Z,25.27
2023-02-22T15:07:20.584Z,26.30
2023-02-22T15:09:29.184Z,24.15
2023-02-22T15:11:33.662Z,23.33
2023-02-22T15:13:39.232Z,21.92
2023-02-22T15:15:46.935Z,22.70
2023-02-22T15:17:56.952Z,22.05
2023-02-22T15:20:00.296Z,24.80
2023-02-22T15:22:04.160Z,23.83
2023-02-22T15:24:09.068Z,22.55
2023-02-22T15:26:23.944Z,21.45
2023-02-22T15:28:30.965Z,23.52
2023-02-22T15:30:35.782Z,25.48
2023-02-22T15:32:53.284Z,21.70
2023-02-22T15:35:14.396Z,21.83
2023-02-22T15:37:25.447Z,24.05
2023-02-22T15:39:33.181Z,23.70
2023-02-22T15:41:37.030Z,23.30
2023-02-22T15:43:40.817Z,22.80
2023-02-22T15:45:46.796Z,24.10
2023-02-22T15:47:51.127Z,26.77
2023-02-22T15:50:17.213Z,22.15
2023-02-22T15:52:25.015Z,26.10
2023-02-22T15:54:28.338Z,23.65
2023-02-22T15:56:35.971Z,24.33
2023-02-22T15:58:40.137Z,24.63
2023-02-22T16:00:48.825Z,25.13
2023-02-22T16:02:53.018Z,23.73
2023-02-22T16:05:00.809Z,25.05
2023-02-22T16:07:16.845Z,23.75
2023-02-22T16:09:23.117Z,27.45
2023-02-22T16:11:31.069Z,24.48
2023-02-22T16:13:36.844Z,22.23
2023-02-22T16:15:40.029Z,25.52
2023-02-22T16:18:01.077Z,23.92
2023-02-22T16:20:34.008Z,25.00
2023-02-22T16:24:41.628Z,24.52
2023-02-22T16:27:04.528Z,25.45
2023-02-22T16:29:11.107Z,24.80
2023-02-22T16:31:14.769Z,27.88
2023-02-22T16:33:19.517Z,26.85
2023-02-22T16:35:28.464Z,29.20
2023-02-22T16:37:31.814Z,26.10
2023-02-22T16:39:36.152Z,24.67
2023-02-22T16:41:39.696Z,27.15
2023-02-22T16:43:46.298Z,24.23
2023-02-22T16:45:49.552Z,28.27
2023-02-22T16:47:53.800Z,26.15
2023-02-22T16:49:58.445Z,28.08
2023-02-22T16:52:03.376Z,27.13
2023-02-22T16:54:07.191Z,26.48
2023-02-22T16:56:13.062Z,25.70
2023-02-22T16:58:18.968Z,27.75
2023-02-22T17:00:31.337Z,26.88
2023-02-22T17:02:34.920Z,27.70
2023-02-22T17:04:40.388Z,27.85
2023-02-22T17:06:45.119Z,27.17
2023-02-22T17:08:51.987Z,26.27
2023-02-22T17:10:56.815Z,27.55
2023-02-22T17:13:12.742Z,25.88
2023-02-22T17:15:26.384Z,26.95
2023-02-22T17:17:29.587Z,28.50
2023-02-22T17:19:32.795Z,30.95
2023-02-22T17:21:35.999Z,28.40
2023-02-22T17:23:40.953Z,29.73
2023-02-22T17:25:46.274Z,32.38
2023-02-22T17:27:49.712Z,31.80
2023-02-22T17:29:53.133Z,33.10
2023-02-22T17:31:56.565Z,33.00
2023-02-22T17:34:02.965Z,33.97
2023-02-22T17:36:07.078Z,29.98
2023-02-22T17:38:10.263Z,32.10
2023-02-22T17:40:15.732Z,29.48
2023-02-22T17:42:19.243Z,31.88
2023-02-22T17:44:22.545Z,29.95
2023-02-22T17:46:26.278Z,32.85
2023-02-22T17:48:29.509Z,32.33
2023-02-22T17:50:32.854Z,31.05
2023-02-22T17:52:36.056Z,31.83
2023-02-22T17:54:39.266Z,32.72
2023-02-22T17:56:43.839Z,30.10
2023-02-22T17:58:47.420Z,31.63
2023-02-22T18:00:51.498Z,34.55
2023-02-22T18:02:54.770Z,31.92
2023-02-22T18:04:57.965Z,29.60
2023-02-22T18:07:01.266Z,30.10
2023-02-22T18:09:10.761Z,30.08
2023-02-22T18:11:14.286Z,34.60
2023-02-22T18:13:19.156Z,31.77
2023-02-22T18:15:22.418Z,30.33
2023-02-22T18:17:25.627Z,33.45
2023-02-22T18:19:29.276Z,30.35
2023-02-22T18:21:32.557Z,29.33
2023-02-22T18:23:35.786Z,29.67
2023-02-22T18:25:40.168Z,27.70
2023-02-22T18:27:44.327Z,27.58
2023-02-22T18:29:49.002Z,29.77
2023-02-22T18:31:53.741Z,29.77
2023-02-22T18:33:57.582Z,30.38
2023-02-22T18:36:00.834Z,27.55
2023-02-22T18:38:04.925Z,28.45
2023-02-22T18:40:10.690Z,27.48
2023-02-22T18:42:15.130Z,27.40
2023-02-22T18:44:19.397Z,28.25
2023-02-22T18:46:26.022Z,28.38
2023-02-22T18:48:29.191Z,28.30
2023-02-22T18:50:32.448Z,29.63
2023-02-22T18:52:44.811Z,27.67
2023-02-22T18:54:50.082Z,26.75
2023-02-22T18:56:53.226Z,28.02
2023-02-22T18:58:58.617Z,26.60
2023-02-22T19:01:02.246Z,27.67
2023-02-22T19:03:07.235Z,26.27
2023-02-22T19:05:11.116Z,27.17
2023-02-22T19:07:17.978Z,25.20
2023-02-22T19:09:21.325Z,25.17
2023-02-22T19:11:26.077Z,25.05
2023-02-22T19:13:29.314Z,26.38
2023-02-22T19:15:32.522Z,26.48
2023-02-22T19:17:36.635Z,28.02
2023-02-22T19:19:41.238Z,25.10
2023-02-22T19:21:44.485Z,25.65
2023-02-22T19:23:48.576Z,27.45
2023-02-22T19:25:52.336Z,27.23
2023-02-22T19:27:56.814Z,28.58
2023-02-22T19:30:00.407Z,25.05
2023-02-22T19:32:03.681Z,26.30
2023-02-22T19:34:08.986Z,29.35
2023-02-22T19:36:15.449Z,31.40
2023-02-22T19:38:19.672Z,30.02
2023-02-22T19:40:23.640Z,27.77
2023-02-22T19:42:26.978Z,27.23
2023-02-22T19:44:30.388Z,26.30
2023-02-22T19:46:34.359Z,32.15
2023-02-22T19:48:38.609Z,28.63
2023-02-22T19:50:48.969Z,28.73
2023-02-22T19:52:55.993Z,27.30
2023-02-22T19:55:00.003Z,29.17
2023-02-22T19:57:03.730Z,27.08
2023-02-22T19:59:13.437Z,29.02
2023-02-22T20:01:22.977Z,29.23
2023-02-22T20:03:27.020Z,28.85
2023-02-22T20:05:32.391Z,29.67
2023-02-22T20:07:35.589Z,28.58
2023-02-22T20:09:40.406Z,31.27
2023-02-22T20:11:43.710Z,31.33
2023-02-22T20:13:46.963Z,30.33
2023-02-22T20:15:50.865Z,29.48
2023-02-22T20:17:55.630Z,31.58
2023-02-22T20:19:58.848Z,32.53
2023-02-22T20:22:02.086Z,35.13
2023-02-22T20:24:08.551Z,32.00
2023-02-22T20:26:19.335Z,33.85
2023-02-22T20:28:22.965Z,37.20
2023-02-22T20:30:26.254Z,33.28
2023-02-22T20:32:31.853Z,34.45
2023-02-22T20:34:36.252Z,36.92
2023-02-22T20:36:41.429Z,35.10
2023-02-22T20:38:45.558Z,33.20
2023-02-22T20:40:48.931Z,31.77
2023-02-22T20:42:53.595Z,31.92
2023-02-22T20:45:01.722Z,32.38
2023-02-22T20:47:05.265Z,32.15
2023-02-22T20:49:11.158Z,34.63
2023-02-22T20:51:16.679Z,33.78
2023-02-22T20:53:20.354Z,35.85
2023-02-22T20:55:23.634Z,34.97
2023-02-22T20:57:26.949Z,44.13
2023-02-22T20:59:31.536Z,40.00
2023-02-22T21:01:34.844Z,36.22
2023-02-22T21:03:38.040Z,34.55
2023-02-22T21:05:43.757Z,35.33
2023-02-22T21:07:47.000Z,35.00
2023-02-22T21:09:50.528Z,34.75
2023-02-22T21:11:53.723Z,34.90
2023-02-22T21:13:57.316Z,35.20
2023-02-22T21:16:01.858Z,36.40
2023-02-22T21:18:06.040Z,34.67
2023-02-22T21:20:12.239Z,35.25
2023-02-22T21:22:15.619Z,33.70
2023-02-22T21:24:18.786Z,35.63
2023-02-22T21:26:24.566Z,34.17
2023-02-22T21:28:32.441Z,33.67
2023-02-22T21:30:46.660Z,33.17
2023-02-22T21:32:53.902Z,32.47
2023-02-22T21:34:57.087Z,32.58
2023-02-22T21:37:00.292Z,31.55
2023-02-22T21:39:08.478Z,32.92
2023-02-22T21:41:12.489Z,33.70
2023-02-22T21:43:16.708Z,34.40
2023-02-22T21:45:22.651Z,37.80
2023-02-22T21:47:27.675Z,31.35
2023-02-22T21:49:32.424Z,34.35
2023-02-22T21:51:37.741Z,35.95
2023-02-22T21:53:46.097Z,33.30
2023-02-22T21:55:49.518Z,39.25
2023-02-22T21:57:52.706Z,33.20
2023-02-22T21:59:55.963Z,39.35
2023-02-22T22:01:59.143Z,34.45
2023-02-22T22:04:03.416Z,34.72
2023-02-22T22:06:11.179Z,37.35
2023-02-22T22:08:19.509Z,34.13
2023-02-22T22:10:27.580Z,38.30
2023-02-22T22:12:38.797Z,31.58
2023-02-22T22:14:42.771Z,38.80
2023-02-22T22:16:47.990Z,36.97
2023-02-22T22:18:51.282Z,37.17
2023-02-22T22:20:56.035Z,35.28
2023-02-22T22:23:00.587Z,43.92
2023-02-22T22:25:10.334Z,37.40
2023-02-22T22:27:13.556Z,38.08
2023-02-22T22:29:16.896Z,38.65
2023-02-22T22:31:21.943Z,38.55
2023-02-22T22:33:25.440Z,46.28
2023-02-22T22:35:28.699Z,33.30
2023-02-22T22:37:32.359Z,48.80
2023-02-22T22:39:38.488Z,42.55
2023-02-22T22:41:42.106Z,40.83
2023-02-22T22:43:46.222Z,42.50
2023-02-22T22:45:49.402Z,41.72
2023-02-22T22:47:53.053Z,40.17
2023-02-22T22:50:01.446Z,38.05
2023-02-22T22:52:04.878Z,49.13
2023-02-22T22:54:09.535Z,41.75
2023-02-22T22:56:16.310Z,43.78
2023-02-22T22:58:19.655Z,38.08
2023-02-22T23:00:29.675Z,42.50
2023-02-22T23:02:32.858Z,42.63
2023-02-22T23:04:38.025Z,44.55
2023-02-22T23:06:43.053Z,44.80
2023-02-22T23:08:46.240Z,42.22
2023-02-22T23:10:49.423Z,42.95
2023-02-22T23:12:54.873Z,42.88
2023-02-22T23:14:58.467Z,41.00
2023-02-22T23:17:03.531Z,41.70
2023-02-22T23:19:08.749Z,42.80
2023-02-22T23:21:12.188Z,42.65
2023-02-22T23:23:15.402Z,45.85
2023-02-22T23:25:19.802Z,42.20
2023-02-22T23:27:23.734Z,40.15
2023-02-22T23:29:29.926Z,42.88
2023-02-22T23:31:33.493Z,42.35
2023-02-22T23:33:38.301Z,44.08
2023-02-22T23:35:42.494Z,44.95
2023-02-22T23:37:46.342Z,46.60
2023-02-22T23:39:50.965Z,50.53
2023-02-22T23:41:55.761Z,43.50
2023-02-22T23:44:00.039Z,44.80
2023-02-22T23:46:10.854Z,44.50
2023-02-22T23:48:14.096Z,45.08
2023-02-22T23:50:19.146Z,41.85
2023-02-22T23:52:24.633Z,52.17
2023-02-22T23:54:36.075Z,44.47
2023-02-22T23:58:47.052Z,42.05
